Time;durP1;ratioP1;P1;durP2;ratioP2;P2;SDS_P1;SDS_P2;PMS_P1;PMS_P2;Temp;Humidity;BMP_temperature;BMP_pressure;BME280_temperature;BME280_humidity;BME280_pressure;Samples;Min_cycle;Max_cycle;Signal;HPM_P1;HPM_P2
2023/04/22 00:01:09;;;;;;;9.50;6.97;;;10.00;99.90;;;;;;5001095;28;20469;-77
2023/04/22 00:03:38;;;;;;;8.90;5.80;;;9.90;99.90;;;;;;4956383;28;20501;-77
2023/04/22 00:06:05;;;;;;;6.27;4.27;;;10.00;99.90;;;;;;4970282;28;20458;-76
2023/04/22 00:08:34;;;;;;;11.20;5.40;;;10.00;99.90;;;;;;4991767;28;20481;-76
2023/04/22 00:11:04;;;;;;;8.60;6.00;;;10.00;99.90;;;;;;4988908;28;21287;-76
2023/04/22 00:13:31;;;;;;;8.50;4.90;;;10.10;99.90;;;;;;5004648;28;20463;-76
2023/04/22 00:15:59;;;;;;;6.73;4.70;;;9.90;99.90;;;;;;4997135;28;20465;-76
2023/04/22 00:18:27;;;;;;;10.10;4.87;;;9.90;99.90;;;;;;4988716;28;20883;-76
2023/04/22 00:20:57;;;;;;;8.30;5.97;;;9.80;99.90;;;;;;4990855;28;20516;-76
2023/04/22 00:23:25;;;;;;;5.40;4.00;;;9.80;99.90;;;;;;4988857;28;20478;-75
2023/04/22 00:26:01;;;;;;;6.80;5.73;;;9.90;99.90;;;;;;4987899;28;20518;-76
2023/04/22 00:28:39;;;;;;;5.67;3.93;;;9.90;99.90;;;;;;4990623;28;20528;-76
2023/04/22 00:31:06;;;;;;;6.57;4.67;;;9.80;99.90;;;;;;4993054;28;20440;-76
2023/04/22 00:33:36;;;;;;;9.60;5.10;;;9.60;99.90;;;;;;5004025;28;20477;-75
2023/04/22 00:36:09;;;;;;;6.17;4.03;;;9.60;99.90;;;;;;4991574;28;20466;-75
2023/04/22 00:38:36;;;;;;;6.23;4.80;;;9.50;99.90;;;;;;4993319;28;20573;-75
2023/04/22 00:41:06;;;;;;;7.33;4.90;;;9.40;99.90;;;;;;4987553;28;20482;-75
2023/04/22 00:43:39;;;;;;;10.23;5.33;;;9.40;99.90;;;;;;4972980;28;20470;-75
2023/04/22 00:46:06;;;;;;;10.43;5.60;;;9.30;99.90;;;;;;4987387;28;20523;-76
2023/04/22 00:48:35;;;;;;;16.07;5.50;;;9.30;99.90;;;;;;4987681;28;20580;-76
2023/04/22 00:51:02;;;;;;;9.10;5.57;;;9.30;99.90;;;;;;4988431;28;20846;-75
2023/04/22 00:53:30;;;;;;;15.07;5.70;;;9.40;99.90;;;;;;4956385;28;20460;-76
2023/04/22 00:55:59;;;;;;;9.90;4.97;;;9.40;99.90;;;;;;4987777;28;20458;-76
2023/04/22 00:58:28;;;;;;;9.07;5.60;;;9.50;99.90;;;;;;4991100;28;20428;-76
2023/04/22 01:00:55;;;;;;;11.90;5.97;;;9.50;99.90;;;;;;4973350;28;21472;-76
2023/04/22 01:03:25;;;;;;;6.03;4.87;;;9.60;99.90;;;;;;4954623;28;20474;-73
2023/04/22 01:05:54;;;;;;;9.53;5.13;;;9.60;99.90;;;;;;4991196;28;20520;-73
2023/04/22 01:08:28;;;;;;;16.17;6.50;;;9.60;99.90;;;;;;4997962;28;20482;-76
2023/04/22 01:10:56;;;;;;;14.10;7.50;;;9.60;99.90;;;;;;4987465;28;20487;-76
2023/04/22 01:13:24;;;;;;;10.97;6.10;;;9.50;99.90;;;;;;4953516;28;20499;-77
2023/04/22 01:16:02;;;;;;;11.43;6.77;;;9.50;99.90;;;;;;4983938;28;20462;-76
2023/04/22 01:18:32;;;;;;;7.17;4.73;;;9.50;99.90;;;;;;4983658;28;20409;-76
2023/04/22 01:21:07;;;;;;;6.90;4.50;;;9.60;99.90;;;;;;4986573;28;20504;-76
2023/04/22 01:23:51;;;;;;;6.60;4.53;;;9.70;99.90;;;;;;4991176;28;21335;-76
2023/04/22 01:26:28;;;;;;;10.13;4.73;;;9.70;99.90;;;;;;4990938;28;20450;-76
2023/04/22 01:29:19;;;;;;;13.47;4.73;;;9.80;99.90;;;;;;4992470;28;20735;-75
2023/04/22 01:31:57;;;;;;;7.20;4.43;;;9.80;99.90;;;;;;4992614;28;20462;-75
2023/04/22 01:34:28;;;;;;;8.47;4.87;;;9.90;99.90;;;;;;4986515;28;20481;-76
2023/04/22 01:36:57;;;;;;;8.50;5.30;;;9.90;99.90;;;;;;4989741;28;20818;-76
2023/04/22 01:39:30;;;;;;;5.57;5.03;;;9.90;99.90;;;;;;4991465;28;20458;-77
2023/04/22 01:42:01;;;;;;;6.60;4.00;;;10.00;99.90;;;;;;4984696;28;20462;-75
2023/04/22 01:44:30;;;;;;;4.73;3.67;;;10.00;99.90;;;;;;4989162;28;20548;-76
2023/04/22 01:47:04;;;;;;;7.10;5.67;;;9.90;99.90;;;;;;4989693;28;20458;-75
2023/04/22 01:49:36;;;;;;;5.73;4.63;;;10.00;99.90;;;;;;4997438;28;20965;-75
2023/04/22 01:52:08;;;;;;;10.20;4.83;;;10.00;99.90;;;;;;5000809;28;20486;-75
2023/04/22 01:54:57;;;;;;;10.63;5.57;;;10.00;99.90;;;;;;4989884;28;20464;-74
2023/04/22 02:00:22;;;;;;;7.47;5.07;;;10.20;99.90;;;;;;4986950;28;20453;-76
2023/04/22 02:02:52;;;;;;;7.17;4.67;;;10.30;99.90;;;;;;4987688;28;20448;-76
2023/04/22 02:05:34;;;;;;;10.53;4.93;;;10.30;99.90;;;;;;4984078;28;20474;-76
2023/04/22 02:08:10;;;;;;;7.90;5.03;;;10.30;99.90;;;;;;4989782;28;20484;-77
2023/04/22 02:10:41;;;;;;;10.90;7.07;;;10.20;99.90;;;;;;4969155;28;20497;-77
2023/04/22 02:13:08;;;;;;;7.40;4.40;;;10.20;99.90;;;;;;4986178;28;20541;-77
2023/04/22 02:15:35;;;;;;;9.00;5.50;;;10.20;99.90;;;;;;4996265;28;20502;-75
2023/04/22 02:18:06;;;;;;;6.87;4.50;;;10.20;99.90;;;;;;5001276;28;20456;-73
2023/04/22 02:20:36;;;;;;;8.10;6.00;;;10.10;99.90;;;;;;4984549;28;20490;-76
2023/04/22 02:23:08;;;;;;;5.07;4.57;;;10.20;99.90;;;;;;4985490;28;20489;-76
2023/04/22 02:25:39;;;;;;;8.40;4.90;;;10.20;99.90;;;;;;4958055;28;20459;-74
2023/04/22 02:28:10;;;;;;;6.13;5.10;;;10.20;99.90;;;;;;5004866;28;20544;-77
2023/04/22 02:30:37;;;;;;;7.00;5.20;;;10.10;99.90;;;;;;4986362;28;20962;-77
2023/04/22 02:33:08;;;;;;;9.10;5.70;;;10.20;99.90;;;;;;4988451;28;21019;-77
2023/04/22 02:35:39;;;;;;;9.83;4.60;;;10.20;99.90;;;;;;4984552;28;20462;-76
2023/04/22 02:38:06;;;;;;;5.60;5.07;;;10.20;99.90;;;;;;4968501;28;20537;-76
2023/04/22 02:40:42;;;;;;;9.93;6.50;;;10.10;99.90;;;;;;4989481;28;20955;-77
2023/04/22 02:43:09;;;;;;;11.73;6.90;;;10.30;99.90;;;;;;4989940;28;20598;-76
2023/04/22 02:45:36;;;;;;;11.70;6.00;;;10.30;99.90;;;;;;4987297;28;20466;-75
2023/04/22 02:48:04;;;;;;;10.00;5.93;;;10.40;99.90;;;;;;4939226;28;20502;-76
2023/04/22 02:50:33;;;;;;;11.20;5.40;;;10.30;99.90;;;;;;4973213;28;20458;-76
2023/04/22 02:53:00;;;;;;;6.47;5.03;;;10.40;99.90;;;;;;4987067;28;20547;-76
2023/04/22 02:55:27;;;;;;;9.57;5.20;;;10.40;99.90;;;;;;4984123;28;20521;-77
2023/04/22 02:57:59;;;;;;;11.27;6.20;;;10.40;99.90;;;;;;4987479;28;20565;-77
2023/04/22 03:00:27;;;;;;;8.97;6.13;;;10.30;99.90;;;;;;4984828;28;20521;-77
2023/04/22 03:02:54;;;;;;;10.30;5.40;;;10.30;99.90;;;;;;4987589;28;20565;-77
2023/04/22 03:05:32;;;;;;;8.20;5.53;;;10.10;99.90;;;;;;4981604;28;20573;-76
2023/04/22 03:07:59;;;;;;;7.63;6.03;;;10.10;99.90;;;;;;4988221;28;20489;-76
2023/04/22 03:10:26;;;;;;;9.70;5.70;;;10.10;99.90;;;;;;4988131;28;20892;-76
2023/04/22 03:12:56;;;;;;;7.77;6.30;;;10.20;99.90;;;;;;4967315;28;21016;-75
2023/04/22 03:15:23;;;;;;;5.77;4.93;;;10.20;99.90;;;;;;4968284;28;20465;-75
2023/04/22 03:17:50;;;;;;;11.07;6.00;;;10.20;99.90;;;;;;4985163;28;20546;-72
2023/04/22 03:20:17;;;;;;;15.33;5.70;;;10.40;99.90;;;;;;4988085;28;20496;-76
2023/04/22 03:22:44;;;;;;;11.70;8.17;;;10.40;99.90;;;;;;4999013;28;20460;-74
2023/04/22 03:25:12;;;;;;;10.47;5.57;;;10.40;99.90;;;;;;4997873;28;21512;-75
2023/04/22 03:27:39;;;;;;;8.83;6.23;;;10.40;99.90;;;;;;5000398;28;20517;-75
2023/04/22 03:30:10;;;;;;;9.17;5.80;;;10.40;99.90;;;;;;4994617;28;20458;-76
2023/04/22 03:32:37;;;;;;;7.50;5.80;;;10.50;99.90;;;;;;4985574;28;20557;-76
2023/04/22 03:35:21;;;;;;;5.17;4.07;;;10.60;99.90;;;;;;4990728;28;20520;-76
2023/04/22 03:37:47;;;;;;;6.30;4.27;;;10.60;99.90;;;;;;4992385;28;20650;-75
2023/04/22 03:40:15;;;;;;;7.40;5.20;;;10.60;99.90;;;;;;4989540;28;20432;-75
2023/04/22 03:42:44;;;;;;;6.47;4.20;;;10.60;99.90;;;;;;4991425;28;20478;-76
2023/04/22 03:45:15;;;;;;;14.27;5.97;;;10.70;99.90;;;;;;4993135;28;21143;-76
2023/04/22 03:48:06;;;;;;;;;;;;;;;;;;;;;
2023/04/22 03:54:25;;;;;;;7.37;4.67;;;10.70;99.90;;;;;;4967917;28;20489;-76
2023/04/22 03:57:02;;;;;;;6.50;4.13;;;10.70;99.90;;;;;;4973874;28;20501;-76
2023/04/22 03:59:32;;;;;;;4.50;3.97;;;10.70;99.90;;;;;;4988702;28;20481;-75
2023/04/22 04:02:06;;;;;;;10.10;4.83;;;10.70;99.90;;;;;;4984919;28;20477;-72
2023/04/22 04:04:36;;;;;;;12.70;5.37;;;10.70;99.90;;;;;;4988616;28;20465;-74
2023/04/22 04:07:03;;;;;;;10.27;7.10;;;10.70;99.90;;;;;;4991532;28;21250;-76
2023/04/22 04:09:35;;;;;;;8.40;4.90;;;10.70;99.90;;;;;;4989586;28;20548;-75
2023/04/22 04:12:05;;;;;;;8.33;5.97;;;10.70;99.90;;;;;;4990965;28;20751;-76
2023/04/22 04:14:37;;;;;;;7.43;4.53;;;10.70;99.90;;;;;;4991803;28;21384;-75
2023/04/22 04:17:08;;;;;;;6.20;4.57;;;10.70;99.90;;;;;;4994122;28;20467;-75
2023/04/22 04:19:37;;;;;;;6.80;4.27;;;10.80;99.90;;;;;;4997608;28;20462;-74
2023/04/22 04:22:13;;;;;;;7.47;5.20;;;10.60;99.90;;;;;;4996958;28;20466;-73
2023/04/22 04:24:41;;;;;;;7.33;4.90;;;10.50;99.90;;;;;;4983175;28;20442;-76
2023/04/22 04:27:12;;;;;;;7.03;4.60;;;10.50;99.90;;;;;;4985550;28;20458;-75
2023/04/22 04:29:42;;;;;;;11.40;6.40;;;10.60;99.90;;;;;;4981553;28;20489;-75
2023/04/22 04:32:47;;;;;;;6.70;4.77;;;10.70;99.90;;;;;;4987778;28;20541;-75
2023/04/22 04:35:42;;;;;;;7.33;5.13;;;10.70;99.90;;;;;;4987250;28;20445;-74
2023/04/22 04:38:25;;;;;;;9.97;6.17;;;10.80;99.90;;;;;;4979262;28;20626;-76
2023/04/22 04:40:57;;;;;;;7.07;4.40;;;10.80;99.90;;;;;;4981716;28;20556;-77
2023/04/22 04:43:32;;;;;;;8.70;5.40;;;10.90;99.90;;;;;;4984451;28;20585;-75
2023/04/22 04:46:00;;;;;;;7.77;4.57;;;10.90;99.90;;;;;;4984623;28;20465;-73
2023/04/22 04:48:38;;;;;;;5.53;4.50;;;10.90;99.90;;;;;;4988070;28;20663;-75
2023/04/22 04:51:17;;;;;;;5.93;3.73;;;10.80;99.90;;;;;;4984059;28;21468;-75
2023/04/22 04:53:53;;;;;;;6.77;4.30;;;10.70;99.90;;;;;;4981204;28;20481;-74
2023/04/22 04:56:23;;;;;;;10.73;5.30;;;10.70;99.90;;;;;;4956098;28;20592;-74
2023/04/22 04:59:05;;;;;;;7.07;4.60;;;10.70;99.90;;;;;;4988268;28;20485;-76
2023/04/22 05:01:57;;;;;;;6.50;4.73;;;10.70;99.90;;;;;;4988577;28;20978;-75
2023/04/22 05:04:25;;;;;;;6.27;5.10;;;10.80;99.90;;;;;;4999767;28;20501;-76
2023/04/22 05:07:02;;;;;;;8.70;6.50;;;10.90;99.90;;;;;;4995871;28;20505;-76
2023/04/22 05:13:06;;;;;;;7.03;6.33;;;11.10;99.90;;;;;;4981891;28;20469;-76
2023/04/22 05:15:56;;;;;;;7.67;4.20;;;11.10;99.90;;;;;;4988074;28;20485;-76
2023/04/22 05:18:24;;;;;;;6.30;4.33;;;11.20;99.90;;;;;;4993725;28;20461;-76
2023/04/22 05:21:03;;;;;;;5.67;3.97;;;11.30;99.90;;;;;;4989124;28;20466;-76
2023/04/22 05:23:34;;;;;;;7.73;4.63;;;11.30;99.90;;;;;;4989681;28;20569;-76
2023/04/22 05:26:14;;;;;;;7.23;5.70;;;11.30;99.90;;;;;;4985513;28;20823;-76
2023/04/22 05:28:43;;;;;;;6.37;4.67;;;11.10;99.90;;;;;;4989217;28;20484;-76
2023/04/22 05:31:12;;;;;;;7.10;4.03;;;11.00;99.90;;;;;;4981239;28;20540;-75
2023/04/22 05:33:39;;;;;;;6.90;3.90;;;10.90;99.90;;;;;;4988825;28;20473;-76
2023/04/22 05:36:09;;;;;;;5.67;4.73;;;10.80;99.90;;;;;;4983476;28;20552;-75
2023/04/22 05:38:39;;;;;;;6.07;4.73;;;10.90;99.90;;;;;;4990248;28;20455;-77
2023/04/22 05:41:18;;;;;;;8.67;4.90;;;11.00;99.90;;;;;;4987740;28;20481;-77
2023/04/22 05:43:46;;;;;;;6.10;4.60;;;11.00;99.90;;;;;;4980851;28;20565;-77
2023/04/22 05:46:13;;;;;;;6.23;5.20;;;11.10;99.90;;;;;;4990349;28;21519;-78
2023/04/22 05:48:48;;;;;;;6.43;4.63;;;11.20;99.90;;;;;;4984394;28;20482;-77
2023/04/22 05:51:16;;;;;;;4.80;3.57;;;11.30;99.90;;;;;;4980944;28;20488;-76
2023/04/22 05:53:51;;;;;;;4.13;3.73;;;11.40;99.90;;;;;;4986840;28;20486;-74
2023/04/22 05:56:23;;;;;;;4.67;3.50;;;11.40;99.90;;;;;;4984053;28;20446;-74
2023/04/22 05:58:58;;;;;;;7.10;3.93;;;11.40;99.90;;;;;;4984331;28;21159;-76
2023/04/22 06:01:37;;;;;;;6.47;4.50;;;11.70;99.90;;;;;;4988306;28;20567;-75
2023/04/22 06:10:36;;;;;;;6.20;5.60;;;11.90;99.90;;;;;;4988839;28;20505;-77
2023/04/22 06:16:46;;;;;;;9.33;4.20;;;12.20;99.90;;;;;;4992527;28;20490;-77
2023/04/22 06:19:50;;;;;;;7.73;5.57;;;12.40;99.90;;;;;;4988451;28;20451;-77
2023/04/22 06:23:03;;;;;;;5.10;4.17;;;12.60;99.90;;;;;;4984878;28;20470;-76
2023/04/22 06:25:58;;;;;;;4.57;3.97;;;12.70;99.90;;;;;;4993598;28;20575;-76
2023/04/22 06:28:58;;;;;;;7.43;4.00;;;12.80;99.90;;;;;;4972557;28;20462;-77
2023/04/22 06:31:27;;;;;;;8.90;4.27;;;13.00;99.90;;;;;;4989677;28;20541;-76
2023/04/22 06:34:00;;;;;;;5.63;4.73;;;12.80;99.90;;;;;;4988112;28;20482;-76
2023/04/22 06:36:36;;;;;;;4.83;3.20;;;12.80;99.90;;;;;;4989664;28;20451;-76
2023/04/22 06:39:09;;;;;;;9.13;4.70;;;12.90;99.90;;;;;;4984860;28;20552;-76
2023/04/22 06:41:37;;;;;;;9.57;4.27;;;13.00;99.90;;;;;;5001482;28;20838;-77
2023/04/22 06:44:13;;;;;;;6.00;3.60;;;13.20;99.90;;;;;;4993508;28;20490;-75
2023/04/22 06:47:02;;;;;;;8.20;4.67;;;13.30;99.90;;;;;;4991778;28;20445;-76
2023/04/22 06:49:37;;;;;;;6.90;4.60;;;13.60;99.90;;;;;;4988498;28;20507;-76
2023/04/22 06:52:45;;;;;;;10.10;4.90;;;13.80;99.90;;;;;;4990906;28;20466;-76
2023/04/22 06:59:42;;;;;;;5.10;4.60;;;14.20;99.90;;;;;;4898980;28;20563;-77
2023/04/22 07:02:55;;;;;;;4.30;2.90;;;14.30;99.90;;;;;;4982961;28;20462;-76
2023/04/22 07:12:20;;;;;;;3.97;3.40;;;14.80;99.90;;;;;;4853122;29;20476;-76
2023/04/22 07:18:18;;;;;;;3.90;3.30;;;15.20;99.90;;;;;;4886213;29;20602;-75
2023/04/22 07:21:23;;;;;;;4.23;3.07;;;16.40;99.90;;;;;;4910698;29;20461;-76
2023/04/22 07:24:02;;;;;;;5.77;4.10;;;17.30;99.90;;;;;;4900587;29;20588;-75
2023/04/22 07:26:42;;;;;;;5.10;4.57;;;17.30;99.90;;;;;;4911215;29;20465;-76
2023/04/22 07:29:12;;;;;;;4.90;3.47;;;17.00;99.90;;;;;;4907789;29;20486;-77
2023/04/22 07:31:54;;;;;;;5.77;3.37;;;17.60;99.90;;;;;;4899054;29;20462;-77
2023/04/22 07:34:34;;;;;;;4.30;3.30;;;18.20;99.90;;;;;;4906469;29;20565;-73
2023/04/22 07:37:36;;;;;;;4.40;3.33;;;18.30;99.90;;;;;;4905031;29;20470;-75
2023/04/22 07:40:10;;;;;;;3.27;2.90;;;18.60;99.90;;;;;;4968048;28;20863;-76
2023/04/22 07:42:51;;;;;;;5.20;3.07;;;19.90;99.90;;;;;;4990761;28;20471;-76
2023/04/22 07:45:44;;;;;;;4.13;2.77;;;20.70;99.90;;;;;;4987729;28;20931;-76
2023/04/22 07:48:36;;;;;;;3.30;2.83;;;21.30;99.90;;;;;;4988524;28;20457;-77
2023/04/22 07:51:35;;;;;;;4.30;2.97;;;21.70;99.90;;;;;;4990544;28;20962;-77
2023/04/22 07:54:07;;;;;;;5.60;2.90;;;22.70;99.90;;;;;;4988493;28;20470;-77
2023/04/22 07:57:00;;;;;;;2.70;2.50;;;23.00;99.90;;;;;;4989505;28;20854;-77
2023/04/22 07:59:30;;;;;;;2.40;2.20;;;23.60;99.90;;;;;;4987117;28;20458;-77
2023/04/22 08:02:43;;;;;;;6.83;1.87;;;23.50;99.90;;;;;;4986794;28;20450;-77
2023/04/22 08:09:25;;;;;;;2.80;1.90;;;23.00;99.90;;;;;;4961778;28;20485;-77
2023/04/22 08:12:37;;;;;;;3.20;1.97;;;24.10;99.90;;;;;;4984879;28;20459;-77
2023/04/22 08:15:11;;;;;;;3.03;1.80;;;23.60;99.90;;;;;;4989544;28;20541;-76
2023/04/22 08:17:38;;;;;;;1.67;1.57;;;23.10;99.90;;;;;;4996280;28;20477;-73
2023/04/22 08:20:30;;;;;;;2.03;1.83;;;22.90;99.90;;;;;;4994592;28;20646;-76
2023/04/22 08:23:53;;;;;;;2.60;2.00;;;21.90;99.90;;;;;;4967881;28;20656;-76
2023/04/22 08:30:31;;;;;;;1.83;1.73;;;21.30;99.90;;;;;;4881577;29;20498;-76
2023/04/22 08:46:54;;;;;;;2.53;1.77;;;23.90;99.90;;;;;;4744723;29;20453;-76
2023/04/22 08:49:37;;;;;;;5.30;1.73;;;23.80;98.90;;;;;;4803726;29;21335;-77
2023/04/22 08:55:50;;;;;;;1.97;1.87;;;24.00;99.90;;;;;;4909764;29;20950;-76
2023/04/22 09:02:02;;;;;;;2.10;1.57;;;24.60;96.80;;;;;;4838545;29;20548;-76
2023/04/22 09:04:40;;;;;;;1.80;1.53;;;24.20;96.80;;;;;;4837438;29;20521;-77
2023/04/22 09:07:35;;;;;;;3.50;2.20;;;24.10;97.10;;;;;;4897401;29;20562;-76
2023/04/22 09:10:38;;;;;;;2.47;2.13;;;23.70;98.30;;;;;;4887785;29;21219;-77
2023/04/22 09:13:09;;;;;;;2.50;2.30;;;23.70;97.20;;;;;;4906964;29;20668;-78
2023/04/22 09:15:36;;;;;;;2.27;2.07;;;24.30;97.90;;;;;;4915126;28;20455;-78
2023/04/22 09:21:31;;;;;;;3.40;1.97;;;25.40;95.70;;;;;;4990143;28;20465;-75
2023/04/22 09:27:10;;;;;;;2.53;1.70;;;24.20;96.80;;;;;;4919049;28;21007;-78
2023/04/22 09:30:10;;;;;;;2.40;1.90;;;23.80;96.30;;;;;;4972677;28;20488;-78
2023/04/22 09:32:53;;;;;;;2.53;2.33;;;24.10;97.00;;;;;;4983821;28;20493;-75
2023/04/22 09:35:27;;;;;;;5.10;2.20;;;24.10;97.40;;;;;;4986295;28;20450;-78
2023/04/22 09:42:00;;;;;;;2.10;1.90;;;24.20;96.20;;;;;;4904416;29;21120;-77
2023/04/22 09:48:27;;;;;;;3.50;1.90;;;25.20;94.40;;;;;;4879919;29;21022;-77
2023/04/22 09:51:23;;;;;;;13.33;2.03;;;25.30;94.40;;;;;;4919318;29;20533;-76
2023/04/22 10:10:41;;;;;;;4.30;1.90;;;26.20;91.40;;;;;;4863979;29;20474;-77
2023/04/22 10:20:17;;;;;;;;;;;;;;;;;;;;;
2023/04/22 10:27:04;;;;;;;2.30;1.83;;;26.10;89.80;;;;;;4976253;28;20464;-76
2023/04/22 10:33:15;;;;;;;;;;;;;;;;;;;;;
2023/04/22 10:36:43;;;;;;;;;;;;;;;;;;;;;
2023/04/22 10:42:23;;;;;;;2.00;1.80;;;25.00;90.80;;;;;;4983931;28;20864;-77
2023/04/22 10:52:14;;;;;;;;;;;;;;;;;;;;;
2023/04/22 10:58:55;;;;;;;5.93;1.90;;;27.40;85.20;;;;;;4924572;29;20813;-77
2023/04/22 11:09:11;;;;;;;2.43;1.77;;;28.70;84.00;;;;;;4850817;29;20469;-77
2023/04/22 11:15:45;;;;;;;5.50;2.00;;;28.50;75.90;;;;;;4796287;29;20447;-75
2023/04/22 11:19:08;;;;;;;3.90;2.70;;;27.10;78.80;;;;;;4762983;29;20473;-74
2023/04/22 11:22:46;;;;;;;3.63;1.70;;;27.50;77.40;;;;;;4817509;29;20545;-75
2023/04/22 11:36:01;;;;;;;2.83;1.70;;;27.40;77.50;;;;;;4876644;29;20462;-76
2023/04/22 11:38:28;;;;;;;2.73;2.03;;;27.60;77.00;;;;;;4938772;28;20535;-76
2023/04/22 11:40:58;;;;;;;2.10;1.90;;;26.40;78.10;;;;;;4942723;29;20634;-76
2023/04/22 11:43:25;;;;;;;2.87;1.90;;;25.70;81.40;;;;;;4947974;29;20523;-77
2023/04/22 11:45:57;;;;;;;2.77;2.10;;;26.60;79.20;;;;;;4942665;28;20555;-77
2023/04/22 11:48:31;;;;;;;2.20;2.00;;;27.70;77.80;;;;;;4945909;28;20467;-76
2023/04/22 11:51:25;;;;;;;2.20;2.00;;;29.00;75.60;;;;;;4982434;28;20479;-74
2023/04/22 11:53:59;;;;;;;2.30;1.87;;;29.30;73.80;;;;;;4987373;28;20568;-77
2023/04/22 11:56:39;;;;;;;2.67;1.90;;;29.10;73.60;;;;;;4990147;28;20508;-76
2023/04/22 11:59:20;;;;;;;1.83;1.70;;;29.00;73.80;;;;;;4993248;28;20462;-75
2023/04/22 12:02:04;;;;;;;3.13;2.20;;;29.10;73.70;;;;;;4990072;28;20482;-76
2023/04/22 12:04:47;;;;;;;2.57;1.67;;;28.70;73.10;;;;;;4988303;28;20485;-76
2023/04/22 12:07:32;;;;;;;2.60;1.93;;;27.60;75.00;;;;;;4991605;28;20512;-75
2023/04/22 12:10:02;;;;;;;4.60;2.20;;;26.60;76.20;;;;;;4989172;28;21057;-76
2023/04/22 12:12:29;;;;;;;2.67;2.30;;;26.00;78.30;;;;;;4989411;28;20504;-75
2023/04/22 12:15:09;;;;;;;5.00;2.27;;;25.60;78.40;;;;;;4989837;28;21198;-75
2023/04/22 12:17:39;;;;;;;5.83;2.97;;;25.10;79.40;;;;;;4990662;28;20453;-75
2023/04/22 12:20:15;;;;;;;2.00;1.80;;;24.50;81.20;;;;;;4989642;28;21029;-76
2023/04/22 12:22:43;;;;;;;1.73;1.50;;;25.00;81.80;;;;;;4972457;28;20484;-76
2023/04/22 12:25:10;;;;;;;2.57;2.23;;;25.00;81.10;;;;;;4974876;28;20477;-76
2023/04/22 12:27:37;;;;;;;3.80;1.77;;;24.60;83.10;;;;;;4989078;28;20454;-76
2023/04/22 12:30:05;;;;;;;2.17;1.90;;;24.30;83.50;;;;;;4986090;28;20885;-76
2023/04/22 12:32:32;;;;;;;4.80;1.93;;;24.20;84.70;;;;;;4989376;28;20490;-77
2023/04/22 12:35:01;;;;;;;3.40;1.80;;;24.40;84.60;;;;;;4989425;28;20577;-77
2023/04/22 12:37:28;;;;;;;2.20;1.90;;;24.90;85.90;;;;;;4954524;28;20840;-76
2023/04/22 12:39:59;;;;;;;2.50;1.93;;;26.30;82.50;;;;;;4988136;28;20978;-76
2023/04/22 12:42:26;;;;;;;2.73;1.80;;;27.40;81.10;;;;;;4991787;28;20457;-75
2023/04/22 12:44:57;;;;;;;2.20;1.67;;;27.70;77.50;;;;;;4940847;28;20486;-76
2023/04/22 12:47:27;;;;;;;4.43;2.10;;;27.70;78.40;;;;;;4990777;28;20502;-77
2023/04/22 12:50:00;;;;;;;1.97;1.70;;;27.30;78.50;;;;;;4994442;28;20469;-76
2023/04/22 12:52:28;;;;;;;5.20;4.63;;;26.10;80.10;;;;;;4972676;28;21854;-74
2023/04/22 12:54:55;;;;;;;2.83;2.53;;;24.90;82.60;;;;;;4998204;28;20486;-78
2023/04/22 12:57:24;;;;;;;3.37;2.33;;;24.70;84.70;;;;;;4998031;28;20446;-76
2023/04/22 12:59:51;;;;;;;1.90;1.63;;;24.30;86.20;;;;;;4989693;28;20438;-75
2023/04/22 13:02:18;;;;;;;2.37;1.97;;;23.90;86.40;;;;;;4985585;28;20454;-76
2023/04/22 13:04:46;;;;;;;6.60;2.30;;;23.70;87.20;;;;;;4975300;28;20450;-76
2023/04/22 13:07:16;;;;;;;2.33;2.13;;;23.40;88.10;;;;;;4968893;28;20469;-75
2023/04/22 13:09:43;;;;;;;3.40;2.60;;;23.40;89.10;;;;;;4980430;28;20493;-74
2023/04/22 13:12:10;;;;;;;5.20;2.33;;;23.40;90.30;;;;;;5004911;28;20482;-75
2023/04/22 13:14:41;;;;;;;2.03;1.80;;;24.10;90.40;;;;;;5006427;28;20456;-76
2023/04/22 13:17:08;;;;;;;2.90;1.70;;;25.40;87.90;;;;;;4996823;28;20516;-76
2023/04/22 13:19:40;;;;;;;2.50;2.20;;;25.40;86.20;;;;;;4987966;28;20528;-77
2023/04/22 13:22:33;;;;;;;2.90;2.30;;;25.40;88.80;;;;;;4989156;28;20535;-74
2023/04/22 13:25:21;;;;;;;3.40;2.40;;;26.50;87.40;;;;;;4960588;28;22624;-76
2023/04/22 13:27:57;;;;;;;2.17;1.97;;;26.70;83.60;;;;;;4992194;28;20453;-77
2023/04/22 13:33:36;;;;;;;2.60;2.00;;;26.30;84.70;;;;;;4983209;28;20462;-77
2023/04/22 13:36:07;;;;;;;4.37;1.80;;;27.30;82.80;;;;;;4988037;28;20461;-77
2023/04/22 13:38:45;;;;;;;1.97;1.67;;;28.10;81.30;;;;;;4993932;28;20443;-77
2023/04/22 13:44:49;;;;;;;1.70;1.60;;;30.10;77.10;;;;;;4963191;28;20460;-72
2023/04/22 13:50:23;;;;;;;3.10;2.03;;;28.60;76.70;;;;;;4943477;28;20454;-76
2023/04/22 13:52:50;;;;;;;2.67;2.03;;;27.70;77.20;;;;;;4948479;28;20555;-75
2023/04/22 13:55:18;;;;;;;2.63;2.43;;;26.70;81.10;;;;;;4947860;28;20591;-75
2023/04/22 13:57:46;;;;;;;2.20;2.00;;;26.10;82.00;;;;;;4947946;28;20955;-76
2023/04/22 14:00:14;;;;;;;2.27;1.90;;;25.10;83.60;;;;;;4948282;28;20459;-76
2023/04/22 14:02:42;;;;;;;4.00;2.27;;;24.40;85.80;;;;;;4949496;28;20872;-74
2023/04/22 14:05:10;;;;;;;2.90;2.40;;;24.20;87.20;;;;;;4944716;28;20464;-75
2023/04/22 14:07:39;;;;;;;3.27;2.90;;;24.30;88.80;;;;;;4944745;28;20508;-76
2023/04/22 14:10:10;;;;;;;4.00;2.30;;;24.10;89.20;;;;;;4946039;28;20544;-77
2023/04/22 14:12:40;;;;;;;3.20;2.40;;;23.90;90.10;;;;;;4948961;28;20503;-76
2023/04/22 14:15:09;;;;;;;3.20;2.07;;;24.00;90.20;;;;;;4947988;28;20531;-77
2023/04/22 14:17:37;;;;;;;4.20;2.20;;;23.90;90.30;;;;;;4950692;28;20459;-76
2023/04/22 14:20:12;;;;;;;2.60;2.10;;;23.80;90.20;;;;;;4951245;28;20607;-76
2023/04/22 14:22:39;;;;;;;2.10;1.90;;;23.70;90.70;;;;;;4990880;28;20465;-77
2023/04/22 14:25:07;;;;;;;2.57;2.00;;;23.40;91.40;;;;;;4992840;28;20988;-76
2023/04/22 14:27:34;;;;;;;2.30;1.90;;;23.40;92.00;;;;;;4995479;28;20454;-75
2023/04/22 14:30:03;;;;;;;2.10;1.90;;;23.40;91.70;;;;;;4994285;28;20546;-76
2023/04/22 14:32:30;;;;;;;1.67;1.43;;;23.10;92.30;;;;;;4987724;28;20514;-76
2023/04/22 14:35:01;;;;;;;2.60;1.77;;;22.60;92.70;;;;;;4955746;28;20970;-76
2023/04/22 14:37:42;;;;;;;2.33;2.10;;;22.40;94.70;;;;;;4986517;28;20921;-76
2023/04/22 14:40:11;;;;;;;1.80;1.70;;;22.10;95.00;;;;;;4991537;28;20462;-73
2023/04/22 14:42:38;;;;;;;2.27;1.80;;;22.00;95.70;;;;;;4996791;28;20572;-76
2023/04/22 14:45:07;;;;;;;2.63;2.03;;;21.90;97.00;;;;;;4987586;28;20477;-75
2023/04/22 14:47:35;;;;;;;2.43;2.23;;;21.80;97.90;;;;;;4988576;28;20442;-75
2023/04/22 14:50:03;;;;;;;3.50;2.77;;;21.30;99.90;;;;;;4974354;28;20507;-76
2023/04/22 14:52:39;;;;;;;4.17;2.90;;;20.10;99.90;;;;;;4986490;28;20517;-73
2023/04/22 14:55:06;;;;;;;5.97;2.53;;;19.20;99.90;;;;;;4979466;28;20630;-75
2023/04/22 14:57:33;;;;;;;2.50;1.60;;;18.80;99.90;;;;;;4987355;28;20478;-76
2023/04/22 15:00:00;;;;;;;3.30;2.47;;;18.60;99.90;;;;;;4990764;28;20516;-76
2023/04/22 15:02:28;;;;;;;1.77;1.57;;;18.40;99.90;;;;;;4980538;28;20593;-76
2023/04/22 15:04:55;;;;;;;2.63;1.80;;;18.30;99.90;;;;;;4985313;28;20545;-72
2023/04/22 15:07:22;;;;;;;2.37;1.87;;;18.20;99.90;;;;;;4981084;28;20465;-75
2023/04/22 15:09:51;;;;;;;2.63;2.13;;;18.40;99.90;;;;;;4982865;28;20677;-72
2023/04/22 15:12:18;;;;;;;2.37;1.73;;;18.50;99.90;;;;;;4987663;28;20529;-75
2023/04/22 15:14:49;;;;;;;4.20;2.33;;;18.40;99.90;;;;;;4994535;28;20501;-78
2023/04/22 15:17:17;;;;;;;4.07;2.30;;;18.60;99.90;;;;;;4984234;28;20549;-77
2023/04/22 15:19:44;;;;;;;2.33;1.90;;;18.80;99.90;;;;;;4983695;28;20463;-77
2023/04/22 15:22:13;;;;;;;2.47;2.27;;;19.00;99.90;;;;;;4987582;28;20508;-76
2023/04/22 15:24:40;;;;;;;2.93;2.37;;;19.10;99.90;;;;;;4986627;28;21070;-77
2023/04/22 15:27:10;;;;;;;5.50;3.70;;;19.20;99.90;;;;;;4989669;28;20550;-77
2023/04/22 15:29:45;;;;;;;2.23;1.87;;;19.20;99.90;;;;;;4996071;28;20528;-77
2023/04/22 15:32:14;;;;;;;3.90;2.30;;;19.20;99.90;;;;;;4992288;28;20908;-75
2023/04/22 15:34:41;;;;;;;3.60;2.43;;;18.90;99.90;;;;;;4994407;28;20463;-77
2023/04/22 15:40:04;;;;;;;2.63;2.30;;;18.90;99.90;;;;;;4991772;28;20459;-77
2023/04/22 15:49:18;;;;;;;7.07;2.57;;;19.20;99.90;;;;;;4985346;28;20468;-76
2023/04/22 15:51:48;;;;;;;3.30;2.33;;;19.30;99.90;;;;;;4987640;28;20550;-75
2023/04/22 15:54:18;;;;;;;2.27;1.97;;;19.20;99.90;;;;;;4987110;28;20489;-76
2023/04/22 15:56:57;;;;;;;2.27;1.97;;;19.20;99.90;;;;;;4985982;28;20467;-76
2023/04/22 16:03:04;;;;;;;3.40;2.60;;;18.90;99.90;;;;;;4991043;28;20985;-76
2023/04/22 16:06:11;;;;;;;5.10;2.40;;;19.10;99.90;;;;;;4991295;28;20486;-74
2023/04/22 16:09:14;;;;;;;2.40;2.20;;;19.20;99.90;;;;;;4988880;28;20954;-77
2023/04/22 16:12:33;;;;;;;;;;;;;;;;;;;;;
2023/04/22 16:18:28;;;;;;;3.20;2.13;;;19.00;99.90;;;;;;4928081;29;20493;-77
2023/04/22 16:21:27;;;;;;;6.10;2.70;;;18.90;99.90;;;;;;4934222;29;20562;-77
2023/04/22 16:24:22;;;;;;;2.37;1.97;;;19.00;99.90;;;;;;4920797;29;21072;-76
2023/04/22 16:26:53;;;;;;;3.40;2.00;;;19.10;99.90;;;;;;4931756;29;20497;-78